sensor_id;sensor_type;location;lat;lon;timestamp;P1;durP1;ratioP1;P2;durP2;ratioP2
34278;SDS011;20538;51.528;9.942;2023-05-08T00:01:39;17.05;;;11.52;;
34278;SDS011;20538;51.528;9.942;2023-05-08T00:04:05;17.08;;;11.52;;
34278;SDS011;20538;51.528;9.942;2023-05-08T00:06:30;16.90;;;10.93;;
34278;SDS011;20538;51.528;9.942;2023-05-08T00:08:56;16.80;;;11.43;;
34278;SDS011;20538;51.528;9.942;2023-05-08T00:11:21;20.35;;;12.20;;
34278;SDS011;20538;51.528;9.942;2023-05-08T00:13:47;17.13;;;10.85;;
34278;SDS011;20538;51.528;9.942;2023-05-08T00:16:13;18.50;;;11.77;;
34278;SDS011;20538;51.528;9.942;2023-05-08T00:18:38;17.42;;;11.30;;
34278;SDS011;20538;51.528;9.942;2023-05-08T00:21:04;16.30;;;11.65;;
34278;SDS011;20538;51.528;9.942;2023-05-08T00:23:30;20.02;;;11.70;;
34278;SDS011;20538;51.528;9.942;2023-05-08T00:25:56;15.48;;;10.77;;
34278;SDS011;20538;51.528;9.942;2023-05-08T00:28:22;17.42;;;11.52;;
34278;SDS011;20538;51.528;9.942;2023-05-08T00:30:48;14.18;;;10.73;;
34278;SDS011;20538;51.528;9.942;2023-05-08T00:33:14;15.95;;;11.55;;
34278;SDS011;20538;51.528;9.942;2023-05-08T00:35:40;20.10;;;11.00;;
34278;SDS011;20538;51.528;9.942;2023-05-08T00:38:07;16.60;;;11.30;;
34278;SDS011;20538;51.528;9.942;2023-05-08T00:40:33;15.13;;;10.60;;
34278;SDS011;20538;51.528;9.942;2023-05-08T00:42:58;15.43;;;10.93;;
34278;SDS011;20538;51.528;9.942;2023-05-08T00:45:25;15.55;;;10.82;;
34278;SDS011;20538;51.528;9.942;2023-05-08T00:48:01;18.35;;;11.50;;
34278;SDS011;20538;51.528;9.942;2023-05-08T00:50:27;16.08;;;11.55;;
34278;SDS011;20538;51.528;9.942;2023-05-08T00:52:54;15.93;;;11.15;;
34278;SDS011;20538;51.528;9.942;2023-05-08T00:55:21;17.08;;;10.73;;
34278;SDS011;20538;51.528;9.942;2023-05-08T00:57:47;16.30;;;11.13;;
34278;SDS011;20538;51.528;9.942;2023-05-08T01:00:14;15.77;;;11.85;;
34278;SDS011;20538;51.528;9.942;2023-05-08T01:02:42;16.02;;;11.43;;
34278;SDS011;20538;51.528;9.942;2023-05-08T01:05:08;18.05;;;11.60;;
34278;SDS011;20538;51.528;9.942;2023-05-08T01:07:33;14.73;;;11.32;;
34278;SDS011;20538;51.528;9.942;2023-05-08T01:09:59;18.95;;;11.52;;
34278;SDS011;20538;51.528;9.942;2023-05-08T01:12:27;15.98;;;11.15;;
34278;SDS011;20538;51.528;9.942;2023-05-08T01:17:56;17.40;;;11.60;;
34278;SDS011;20538;51.528;9.942;2023-05-08T01:20:27;16.08;;;11.77;;
34278;SDS011;20538;51.528;9.942;2023-05-08T01:34:32;17.98;;;11.55;;
34278;SDS011;20538;51.528;9.942;2023-05-08T01:37:00;16.55;;;11.45;;
34278;SDS011;20538;51.528;9.942;2023-05-08T01:39:33;17.83;;;11.52;;
34278;SDS011;20538;51.528;9.942;2023-05-08T01:45:16;18.55;;;12.45;;
34278;SDS011;20538;51.528;9.942;2023-05-08T01:47:59;17.73;;;11.50;;
34278;SDS011;20538;51.528;9.942;2023-05-08T01:50:32;18.08;;;12.35;;
34278;SDS011;20538;51.528;9.942;2023-05-08T01:53:12;17.35;;;12.23;;
34278;SDS011;20538;51.528;9.942;2023-05-08T01:55:41;16.88;;;12.10;;
34278;SDS011;20538;51.528;9.942;2023-05-08T01:58:09;19.75;;;12.43;;
34278;SDS011;20538;51.528;9.942;2023-05-08T02:00:37;20.15;;;12.30;;
34278;SDS011;20538;51.528;9.942;2023-05-08T02:03:05;19.92;;;13.30;;
34278;SDS011;20538;51.528;9.942;2023-05-08T02:05:31;17.55;;;12.23;;
34278;SDS011;20538;51.528;9.942;2023-05-08T02:08:00;17.48;;;11.52;;
34278;SDS011;20538;51.528;9.942;2023-05-08T02:10:27;17.60;;;11.75;;
34278;SDS011;20538;51.528;9.942;2023-05-08T02:12:54;20.00;;;11.57;;
34278;SDS011;20538;51.528;9.942;2023-05-08T02:15:21;18.90;;;12.77;;
34278;SDS011;20538;51.528;9.942;2023-05-08T02:17:48;20.50;;;12.13;;
34278;SDS011;20538;51.528;9.942;2023-05-08T02:20:16;17.13;;;12.43;;
34278;SDS011;20538;51.528;9.942;2023-05-08T02:22:44;19.17;;;11.25;;
34278;SDS011;20538;51.528;9.942;2023-05-08T02:25:12;18.35;;;12.27;;
34278;SDS011;20538;51.528;9.942;2023-05-08T02:27:39;16.27;;;11.73;;
34278;SDS011;20538;51.528;9.942;2023-05-08T02:30:11;20.92;;;11.88;;
34278;SDS011;20538;51.528;9.942;2023-05-08T02:32:43;19.42;;;12.05;;
34278;SDS011;20538;51.528;9.942;2023-05-08T02:35:13;20.52;;;12.13;;
34278;SDS011;20538;51.528;9.942;2023-05-08T02:37:44;18.42;;;12.27;;
34278;SDS011;20538;51.528;9.942;2023-05-08T02:40:13;16.30;;;11.93;;
34278;SDS011;20538;51.528;9.942;2023-05-08T02:42:41;19.25;;;12.32;;
34278;SDS011;20538;51.528;9.942;2023-05-08T02:45:07;20.08;;;12.30;;
34278;SDS011;20538;51.528;9.942;2023-05-08T02:50:26;17.48;;;12.55;;
34278;SDS011;20538;51.528;9.942;2023-05-08T02:53:03;19.20;;;12.48;;
34278;SDS011;20538;51.528;9.942;2023-05-08T02:55:39;16.77;;;11.52;;
34278;SDS011;20538;51.528;9.942;2023-05-08T03:01:15;18.10;;;11.73;;
34278;SDS011;20538;51.528;9.942;2023-05-08T03:04:13;20.50;;;12.25;;
34278;SDS011;20538;51.528;9.942;2023-05-08T03:06:55;24.65;;;13.73;;
34278;SDS011;20538;51.528;9.942;2023-05-08T03:09:22;18.98;;;12.52;;
34278;SDS011;20538;51.528;9.942;2023-05-08T03:11:52;19.38;;;12.95;;
34278;SDS011;20538;51.528;9.942;2023-05-08T03:14:27;18.83;;;12.93;;
34278;SDS011;20538;51.528;9.942;2023-05-08T03:16:56;23.00;;;13.13;;
34278;SDS011;20538;51.528;9.942;2023-05-08T03:19:26;19.98;;;12.43;;
34278;SDS011;20538;51.528;9.942;2023-05-08T03:21:54;17.80;;;12.35;;
34278;SDS011;20538;51.528;9.942;2023-05-08T03:24:21;19.30;;;12.95;;
34278;SDS011;20538;51.528;9.942;2023-05-08T03:26:49;20.75;;;13.52;;
34278;SDS011;20538;51.528;9.942;2023-05-08T03:29:15;18.80;;;13.63;;
34278;SDS011;20538;51.528;9.942;2023-05-08T03:31:42;21.58;;;14.38;;
34278;SDS011;20538;51.528;9.942;2023-05-08T03:34:08;19.92;;;13.35;;
34278;SDS011;20538;51.528;9.942;2023-05-08T03:36:37;22.73;;;14.10;;
34278;SDS011;20538;51.528;9.942;2023-05-08T03:39:03;22.58;;;14.80;;
34278;SDS011;20538;51.528;9.942;2023-05-08T03:41:29;23.02;;;14.55;;
34278;SDS011;20538;51.528;9.942;2023-05-08T03:43:55;20.23;;;14.00;;
34278;SDS011;20538;51.528;9.942;2023-05-08T03:46:22;25.70;;;14.50;;
34278;SDS011;20538;51.528;9.942;2023-05-08T03:48:49;22.80;;;14.82;;
34278;SDS011;20538;51.528;9.942;2023-05-08T03:51:17;20.38;;;13.80;;
34278;SDS011;20538;51.528;9.942;2023-05-08T03:53:43;21.73;;;14.23;;
34278;SDS011;20538;51.528;9.942;2023-05-08T03:56:09;20.88;;;14.35;;
34278;SDS011;20538;51.528;9.942;2023-05-08T03:58:43;20.75;;;13.23;;
34278;SDS011;20538;51.528;9.942;2023-05-08T04:01:20;23.90;;;15.23;;
34278;SDS011;20538;51.528;9.942;2023-05-08T04:06:28;20.10;;;13.43;;
34278;SDS011;20538;51.528;9.942;2023-05-08T04:09:04;21.52;;;13.38;;
34278;SDS011;20538;51.528;9.942;2023-05-08T04:11:40;22.42;;;14.75;;
34278;SDS011;20538;51.528;9.942;2023-05-08T04:14:19;22.13;;;14.13;;
34278;SDS011;20538;51.528;9.942;2023-05-08T04:16:51;20.00;;;13.48;;
34278;SDS011;20538;51.528;9.942;2023-05-08T04:19:21;22.42;;;13.90;;
34278;SDS011;20538;51.528;9.942;2023-05-08T04:21:51;21.92;;;14.18;;
34278;SDS011;20538;51.528;9.942;2023-05-08T04:24:20;20.65;;;14.00;;
34278;SDS011;20538;51.528;9.942;2023-05-08T04:26:49;21.98;;;13.63;;
34278;SDS011;20538;51.528;9.942;2023-05-08T04:29:15;19.08;;;12.85;;
34278;SDS011;20538;51.528;9.942;2023-05-08T04:31:42;16.13;;;11.93;;
34278;SDS011;20538;51.528;9.942;2023-05-08T04:34:09;19.80;;;13.48;;
34278;SDS011;20538;51.528;9.942;2023-05-08T04:36:35;18.15;;;12.73;;
34278;SDS011;20538;51.528;9.942;2023-05-08T04:39:01;17.33;;;12.75;;
34278;SDS011;20538;51.528;9.942;2023-05-08T04:41:27;16.38;;;11.93;;
34278;SDS011;20538;51.528;9.942;2023-05-08T04:43:53;20.30;;;12.23;;
34278;SDS011;20538;51.528;9.942;2023-05-08T04:46:19;17.58;;;11.82;;
34278;SDS011;20538;51.528;9.942;2023-05-08T04:48:44;16.15;;;10.73;;
34278;SDS011;20538;51.528;9.942;2023-05-08T04:51:10;16.35;;;10.93;;
34278;SDS011;20538;51.528;9.942;2023-05-08T04:53:38;16.50;;;11.10;;
34278;SDS011;20538;51.528;9.942;2023-05-08T04:56:04;13.60;;;10.07;;
34278;SDS011;20538;51.528;9.942;2023-05-08T04:58:30;15.25;;;10.68;;
34278;SDS011;20538;51.528;9.942;2023-05-08T05:00:55;13.10;;;10.32;;
34278;SDS011;20538;51.528;9.942;2023-05-08T05:03:21;14.30;;;10.45;;
34278;SDS011;20538;51.528;9.942;2023-05-08T05:05:47;14.55;;;10.23;;
34278;SDS011;20538;51.528;9.942;2023-05-08T05:08:12;12.85;;;9.98;;
34278;SDS011;20538;51.528;9.942;2023-05-08T05:10:38;13.63;;;10.27;;
34278;SDS011;20538;51.528;9.942;2023-05-08T05:13:04;14.70;;;9.63;;
34278;SDS011;20538;51.528;9.942;2023-05-08T05:15:29;13.25;;;9.82;;
34278;SDS011;20538;51.528;9.942;2023-05-08T05:17:55;12.55;;;9.50;;
34278;SDS011;20538;51.528;9.942;2023-05-08T05:20:20;15.93;;;10.55;;
34278;SDS011;20538;51.528;9.942;2023-05-08T05:22:46;16.15;;;10.43;;
34278;SDS011;20538;51.528;9.942;2023-05-08T05:25:12;14.68;;;10.70;;
34278;SDS011;20538;51.528;9.942;2023-05-08T05:27:37;16.85;;;9.93;;
34278;SDS011;20538;51.528;9.942;2023-05-08T05:30:03;15.13;;;11.40;;
34278;SDS011;20538;51.528;9.942;2023-05-08T05:32:29;14.95;;;10.27;;
34278;SDS011;20538;51.528;9.942;2023-05-08T05:34:55;14.15;;;10.43;;
34278;SDS011;20538;51.528;9.942;2023-05-08T05:37:20;14.10;;;10.80;;
34278;SDS011;20538;51.528;9.942;2023-05-08T05:39:47;15.77;;;11.70;;
34278;SDS011;20538;51.528;9.942;2023-05-08T05:42:12;17.38;;;12.20;;
34278;SDS011;20538;51.528;9.942;2023-05-08T05:44:38;16.75;;;11.88;;
34278;SDS011;20538;51.528;9.942;2023-05-08T05:47:04;15.18;;;11.75;;
34278;SDS011;20538;51.528;9.942;2023-05-08T05:49:30;15.77;;;12.20;;
34278;SDS011;20538;51.528;9.942;2023-05-08T05:51:55;17.40;;;12.50;;
34278;SDS011;20538;51.528;9.942;2023-05-08T05:54:21;16.90;;;11.98;;
34278;SDS011;20538;51.528;9.942;2023-05-08T05:56:47;18.23;;;12.18;;
34278;SDS011;20538;51.528;9.942;2023-05-08T05:59:12;25.65;;;13.18;;
34278;SDS011;20538;51.528;9.942;2023-05-08T06:01:38;15.73;;;11.98;;
34278;SDS011;20538;51.528;9.942;2023-05-08T06:04:04;17.10;;;12.38;;
34278;SDS011;20538;51.528;9.942;2023-05-08T06:06:30;15.88;;;12.32;;
34278;SDS011;20538;51.528;9.942;2023-05-08T06:08:56;21.27;;;13.55;;
34278;SDS011;20538;51.528;9.942;2023-05-08T06:11:21;16.58;;;11.65;;
34278;SDS011;20538;51.528;9.942;2023-05-08T06:13:47;18.65;;;12.57;;
34278;SDS011;20538;51.528;9.942;2023-05-08T06:16:16;16.88;;;12.43;;
34278;SDS011;20538;51.528;9.942;2023-05-08T06:18:41;17.20;;;12.82;;
34278;SDS011;20538;51.528;9.942;2023-05-08T06:21:07;16.52;;;11.93;;
34278;SDS011;20538;51.528;9.942;2023-05-08T06:23:34;17.25;;;11.68;;
34278;SDS011;20538;51.528;9.942;2023-05-08T06:25:59;17.98;;;12.60;;
34278;SDS011;20538;51.528;9.942;2023-05-08T06:28:25;21.50;;;12.38;;
34278;SDS011;20538;51.528;9.942;2023-05-08T06:30:51;16.83;;;13.05;;
34278;SDS011;20538;51.528;9.942;2023-05-08T06:33:18;16.98;;;13.02;;
34278;SDS011;20538;51.528;9.942;2023-05-08T06:35:46;17.98;;;11.95;;
34278;SDS011;20538;51.528;9.942;2023-05-08T06:38:13;16.90;;;11.50;;
34278;SDS011;20538;51.528;9.942;2023-05-08T06:40:42;16.60;;;12.85;;
34278;SDS011;20538;51.528;9.942;2023-05-08T06:43:08;17.33;;;12.48;;
34278;SDS011;20538;51.528;9.942;2023-05-08T06:45:35;16.40;;;12.35;;
34278;SDS011;20538;51.528;9.942;2023-05-08T06:48:00;18.25;;;12.35;;
34278;SDS011;20538;51.528;9.942;2023-05-08T06:50:26;20.27;;;13.00;;
34278;SDS011;20538;51.528;9.942;2023-05-08T06:52:52;18.52;;;13.50;;
34278;SDS011;20538;51.528;9.942;2023-05-08T06:55:17;16.92;;;12.43;;
34278;SDS011;20538;51.528;9.942;2023-05-08T06:57:43;17.05;;;12.52;;
34278;SDS011;20538;51.528;9.942;2023-05-08T07:00:09;18.85;;;12.90;;
34278;SDS011;20538;51.528;9.942;2023-05-08T07:02:37;17.98;;;13.20;;
34278;SDS011;20538;51.528;9.942;2023-05-08T07:05:02;21.20;;;13.88;;
34278;SDS011;20538;51.528;9.942;2023-05-08T07:07:28;16.73;;;12.52;;
34278;SDS011;20538;51.528;9.942;2023-05-08T07:09:54;17.83;;;12.02;;
34278;SDS011;20538;51.528;9.942;2023-05-08T07:12:19;17.00;;;12.55;;
34278;SDS011;20538;51.528;9.942;2023-05-08T07:14:45;15.27;;;12.07;;
34278;SDS011;20538;51.528;9.942;2023-05-08T07:17:10;18.75;;;12.82;;
34278;SDS011;20538;51.528;9.942;2023-05-08T07:19:36;16.67;;;11.75;;
34278;SDS011;20538;51.528;9.942;2023-05-08T07:22:03;19.45;;;13.70;;
34278;SDS011;20538;51.528;9.942;2023-05-08T07:24:29;16.90;;;11.65;;
34278;SDS011;20538;51.528;9.942;2023-05-08T07:26:56;16.98;;;12.73;;
34278;SDS011;20538;51.528;9.942;2023-05-08T07:29:23;19.15;;;13.10;;
34278;SDS011;20538;51.528;9.942;2023-05-08T07:31:52;19.55;;;13.15;;
34278;SDS011;20538;51.528;9.942;2023-05-08T07:34:18;17.95;;;12.13;;
34278;SDS011;20538;51.528;9.942;2023-05-08T07:36:44;20.45;;;11.85;;
34278;SDS011;20538;51.528;9.942;2023-05-08T07:39:09;16.60;;;11.55;;
34278;SDS011;20538;51.528;9.942;2023-05-08T07:41:35;15.35;;;12.00;;
34278;SDS011;20538;51.528;9.942;2023-05-08T07:44:01;15.85;;;11.73;;
34278;SDS011;20538;51.528;9.942;2023-05-08T07:46:27;18.08;;;12.07;;
34278;SDS011;20538;51.528;9.942;2023-05-08T07:48:52;13.38;;;10.68;;
34278;SDS011;20538;51.528;9.942;2023-05-08T07:51:18;18.52;;;12.10;;
34278;SDS011;20538;51.528;9.942;2023-05-08T07:53:44;14.98;;;11.10;;
34278;SDS011;20538;51.528;9.942;2023-05-08T07:56:09;16.40;;;11.35;;
34278;SDS011;20538;51.528;9.942;2023-05-08T07:58:35;14.02;;;10.95;;
34278;SDS011;20538;51.528;9.942;2023-05-08T08:01:01;15.63;;;11.27;;
34278;SDS011;20538;51.528;9.942;2023-05-08T08:03:27;13.73;;;10.50;;
34278;SDS011;20538;51.528;9.942;2023-05-08T08:05:53;16.85;;;10.73;;
34278;SDS011;20538;51.528;9.942;2023-05-08T08:08:19;12.40;;;10.60;;
34278;SDS011;20538;51.528;9.942;2023-05-08T08:10:46;13.15;;;10.32;;
34278;SDS011;20538;51.528;9.942;2023-05-08T08:13:12;14.40;;;9.98;;
34278;SDS011;20538;51.528;9.942;2023-05-08T08:15:38;12.57;;;9.43;;
34278;SDS011;20538;51.528;9.942;2023-05-08T08:18:03;12.60;;;9.88;;
34278;SDS011;20538;51.528;9.942;2023-05-08T08:20:29;13.18;;;10.32;;
34278;SDS011;20538;51.528;9.942;2023-05-08T08:22:54;13.02;;;9.55;;
34278;SDS011;20538;51.528;9.942;2023-05-08T08:25:20;13.85;;;10.32;;
34278;SDS011;20538;51.528;9.942;2023-05-08T08:27:46;16.15;;;9.95;;
34278;SDS011;20538;51.528;9.942;2023-05-08T08:30:12;16.00;;;10.32;;
34278;SDS011;20538;51.528;9.942;2023-05-08T08:32:37;11.77;;;9.05;;
34278;SDS011;20538;51.528;9.942;2023-05-08T08:35:03;14.00;;;10.10;;
34278;SDS011;20538;51.528;9.942;2023-05-08T08:37:29;14.35;;;9.68;;
34278;SDS011;20538;51.528;9.942;2023-05-08T08:39:55;13.38;;;10.10;;
34278;SDS011;20538;51.528;9.942;2023-05-08T08:42:20;12.43;;;9.23;;
34278;SDS011;20538;51.528;9.942;2023-05-08T08:44:47;12.30;;;9.63;;
34278;SDS011;20538;51.528;9.942;2023-05-08T08:47:13;12.82;;;9.40;;
34278;SDS011;20538;51.528;9.942;2023-05-08T08:49:47;13.98;;;10.43;;
34278;SDS011;20538;51.528;9.942;2023-05-08T08:53:02;13.07;;;9.27;;
34278;SDS011;20538;51.528;9.942;2023-05-08T08:55:01;13.40;;;10.38;;
34278;SDS011;20538;51.528;9.942;2023-05-08T08:57:31;12.77;;;9.82;;
34278;SDS011;20538;51.528;9.942;2023-05-08T08:59:58;13.20;;;9.60;;
34278;SDS011;20538;51.528;9.942;2023-05-08T09:02:28;12.95;;;8.98;;
34278;SDS011;20538;51.528;9.942;2023-05-08T09:04:55;10.98;;;8.55;;
34278;SDS011;20538;51.528;9.942;2023-05-08T09:07:22;13.13;;;9.07;;
34278;SDS011;20538;51.528;9.942;2023-05-08T09:09:48;11.18;;;9.40;;
34278;SDS011;20538;51.528;9.942;2023-05-08T09:12:16;10.98;;;8.50;;
34278;SDS011;20538;51.528;9.942;2023-05-08T09:14:41;11.70;;;8.60;;
34278;SDS011;20538;51.528;9.942;2023-05-08T09:17:08;12.82;;;10.30;;
34278;SDS011;20538;51.528;9.942;2023-05-08T09:19:34;12.27;;;9.70;;
34278;SDS011;20538;51.528;9.942;2023-05-08T09:22:00;16.17;;;9.82;;
34278;SDS011;20538;51.528;9.942;2023-05-08T09:27:23;13.38;;;9.63;;
34278;SDS011;20538;51.528;9.942;2023-05-08T09:30:00;11.40;;;9.32;;
34278;SDS011;20538;51.528;9.942;2023-05-08T09:32:26;11.60;;;9.93;;
34278;SDS011;20538;51.528;9.942;2023-05-08T09:34:53;12.38;;;9.75;;
34278;SDS011;20538;51.528;9.942;2023-05-08T09:37:19;15.30;;;10.10;;
34278;SDS011;20538;51.528;9.942;2023-05-08T09:39:45;19.95;;;10.18;;
34278;SDS011;20538;51.528;9.942;2023-05-08T09:42:12;11.98;;;9.73;;
34278;SDS011;20538;51.528;9.942;2023-05-08T09:47:14;13.73;;;9.65;;
34278;SDS011;20538;51.528;9.942;2023-05-08T09:50:14;10.93;;;9.40;;
34278;SDS011;20538;51.528;9.942;2023-05-08T09:52:35;13.18;;;8.73;;
34278;SDS011;20538;51.528;9.942;2023-05-08T09:55:06;12.70;;;9.45;;
34278;SDS011;20538;51.528;9.942;2023-05-08T09:57:34;11.98;;;9.90;;
34278;SDS011;20538;51.528;9.942;2023-05-08T10:00:11;12.75;;;9.88;;
34278;SDS011;20538;51.528;9.942;2023-05-08T10:02:41;11.57;;;8.60;;
34278;SDS011;20538;51.528;9.942;2023-05-08T10:07:48;14.77;;;10.63;;
34278;SDS011;20538;51.528;9.942;2023-05-08T10:10:14;13.80;;;10.20;;
34278;SDS011;20538;51.528;9.942;2023-05-08T10:12:53;15.23;;;11.32;;
34278;SDS011;20538;51.528;9.942;2023-05-08T10:15:23;15.00;;;11.82;;
34278;SDS011;20538;51.528;9.942;2023-05-08T10:17:53;15.02;;;10.10;;
34278;SDS011;20538;51.528;9.942;2023-05-08T10:20:27;11.63;;;10.35;;
34278;SDS011;20538;51.528;9.942;2023-05-08T10:22:54;14.18;;;10.32;;
34278;SDS011;20538;51.528;9.942;2023-05-08T10:25:21;16.33;;;10.82;;
34278;SDS011;20538;51.528;9.942;2023-05-08T10:27:54;11.98;;;9.82;;
34278;SDS011;20538;51.528;9.942;2023-05-08T10:30:37;13.35;;;9.57;;
34278;SDS011;20538;51.528;9.942;2023-05-08T10:33:07;14.32;;;10.20;;
34278;SDS011;20538;51.528;9.942;2023-05-08T10:35:38;12.48;;;10.02;;
34278;SDS011;20538;51.528;9.942;2023-05-08T10:38:07;12.63;;;9.70;;
34278;SDS011;20538;51.528;9.942;2023-05-08T10:40:34;15.02;;;9.65;;
34278;SDS011;20538;51.528;9.942;2023-05-08T10:42:59;11.20;;;9.55;;
34278;SDS011;20538;51.528;9.942;2023-05-08T10:45:27;12.88;;;9.18;;
34278;SDS011;20538;51.528;9.942;2023-05-08T10:48:07;15.10;;;9.93;;
34278;SDS011;20538;51.528;9.942;2023-05-08T10:56:15;12.75;;;9.20;;
34278;SDS011;20538;51.528;9.942;2023-05-08T10:58:41;9.52;;;8.52;;
34278;SDS011;20538;51.528;9.942;2023-05-08T11:03:42;12.23;;;8.88;;
34278;SDS011;20538;51.528;9.942;2023-05-08T11:06:09;11.38;;;8.55;;
34278;SDS011;20538;51.528;9.942;2023-05-08T11:08:42;11.07;;;8.35;;
34278;SDS011;20538;51.528;9.942;2023-05-08T11:11:20;10.43;;;7.63;;
34278;SDS011;20538;51.528;9.942;2023-05-08T11:13:54;9.75;;;8.50;;
34278;SDS011;20538;51.528;9.942;2023-05-08T11:19:18;10.45;;;8.02;;
34278;SDS011;20538;51.528;9.942;2023-05-08T11:24:37;10.23;;;7.32;;
34278;SDS011;20538;51.528;9.942;2023-05-08T11:27:04;8.10;;;6.75;;
34278;SDS011;20538;51.528;9.942;2023-05-08T11:29:29;9.63;;;7.28;;
34278;SDS011;20538;51.528;9.942;2023-05-08T11:31:55;9.82;;;6.90;;
34278;SDS011;20538;51.528;9.942;2023-05-08T11:37:19;9.45;;;6.88;;
34278;SDS011;20538;51.528;9.942;2023-05-08T11:39:46;7.55;;;5.85;;
34278;SDS011;20538;51.528;9.942;2023-05-08T11:45:01;9.13;;;6.18;;
34278;SDS011;20538;51.528;9.942;2023-05-08T11:47:39;10.27;;;6.00;;
34278;SDS011;20538;51.528;9.942;2023-05-08T11:50:10;6.20;;;5.43;;
34278;SDS011;20538;51.528;9.942;2023-05-08T11:52:38;6.93;;;5.78;;
34278;SDS011;20538;51.528;9.942;2023-05-08T11:55:06;6.28;;;5.68;;
34278;SDS011;20538;51.528;9.942;2023-05-08T11:57:35;6.05;;;5.40;;
34278;SDS011;20538;51.528;9.942;2023-05-08T12:00:05;7.88;;;5.60;;
34278;SDS011;20538;51.528;9.942;2023-05-08T12:02:35;8.57;;;5.53;;
34278;SDS011;20538;51.528;9.942;2023-05-08T12:05:06;7.80;;;4.88;;
34278;SDS011;20538;51.528;9.942;2023-05-08T12:07:43;9.82;;;6.63;;
34278;SDS011;20538;51.528;9.942;2023-05-08T12:10:10;8.63;;;5.78;;
34278;SDS011;20538;51.528;9.942;2023-05-08T12:12:36;11.05;;;6.55;;
34278;SDS011;20538;51.528;9.942;2023-05-08T12:15:06;7.13;;;6.35;;
34278;SDS011;20538;51.528;9.942;2023-05-08T12:17:36;7.53;;;5.68;;
34278;SDS011;20538;51.528;9.942;2023-05-08T12:22:38;6.75;;;5.32;;
34278;SDS011;20538;51.528;9.942;2023-05-08T12:25:05;7.32;;;5.20;;
34278;SDS011;20538;51.528;9.942;2023-05-08T12:27:33;7.72;;;5.70;;
34278;SDS011;20538;51.528;9.942;2023-05-08T12:30:04;7.78;;;6.78;;
34278;SDS011;20538;51.528;9.942;2023-05-08T12:32:35;9.88;;;8.23;;
34278;SDS011;20538;51.528;9.942;2023-05-08T12:35:02;10.50;;;6.53;;
34278;SDS011;20538;51.528;9.942;2023-05-08T12:37:28;8.10;;;6.50;;
34278;SDS011;20538;51.528;9.942;2023-05-08T12:39:53;9.55;;;6.80;;
34278;SDS011;20538;51.528;9.942;2023-05-08T12:42:19;11.20;;;6.60;;
34278;SDS011;20538;51.528;9.942;2023-05-08T12:44:51;10.55;;;6.47;;
34278;SDS011;20538;51.528;9.942;2023-05-08T12:47:17;6.82;;;5.47;;
34278;SDS011;20538;51.528;9.942;2023-05-08T12:49:44;6.15;;;5.40;;
34278;SDS011;20538;51.528;9.942;2023-05-08T12:52:13;7.70;;;6.22;;
34278;SDS011;20538;51.528;9.942;2023-05-08T12:54:44;7.03;;;5.65;;
34278;SDS011;20538;51.528;9.942;2023-05-08T12:57:13;8.55;;;6.68;;
34278;SDS011;20538;51.528;9.942;2023-05-08T12:59:44;8.23;;;7.20;;
34278;SDS011;20538;51.528;9.942;2023-05-08T13:02:20;8.13;;;7.00;;
34278;SDS011;20538;51.528;9.942;2023-05-08T13:04:49;11.25;;;8.40;;
34278;SDS011;20538;51.528;9.942;2023-05-08T13:07:19;9.65;;;6.85;;
34278;SDS011;20538;51.528;9.942;2023-05-08T13:09:56;9.65;;;7.30;;
34278;SDS011;20538;51.528;9.942;2023-05-08T13:12:22;8.95;;;6.47;;
34278;SDS011;20538;51.528;9.942;2023-05-08T13:14:48;8.40;;;6.25;;
34278;SDS011;20538;51.528;9.942;2023-05-08T13:17:17;8.27;;;6.10;;
34278;SDS011;20538;51.528;9.942;2023-05-08T13:19:43;8.60;;;6.20;;
34278;SDS011;20538;51.528;9.942;2023-05-08T13:22:08;9.52;;;6.95;;
34278;SDS011;20538;51.528;9.942;2023-05-08T13:24:34;8.35;;;7.10;;
34278;SDS011;20538;51.528;9.942;2023-05-08T13:26:59;9.70;;;7.47;;
34278;SDS011;20538;51.528;9.942;2023-05-08T13:29:25;10.15;;;7.57;;
34278;SDS011;20538;51.528;9.942;2023-05-08T13:31:51;11.00;;;7.93;;
34278;SDS011;20538;51.528;9.942;2023-05-08T13:34:17;9.32;;;7.45;;
34278;SDS011;20538;51.528;9.942;2023-05-08T13:36:42;9.63;;;7.15;;
34278;SDS011;20538;51.528;9.942;2023-05-08T13:39:08;10.60;;;7.85;;
34278;SDS011;20538;51.528;9.942;2023-05-08T13:41:34;8.40;;;7.22;;
34278;SDS011;20538;51.528;9.942;2023-05-08T13:43:59;10.10;;;7.65;;
34278;SDS011;20538;51.528;9.942;2023-05-08T13:46:25;15.02;;;8.52;;
34278;SDS011;20538;51.528;9.942;2023-05-08T13:48:50;9.10;;;7.75;;
34278;SDS011;20538;51.528;9.942;2023-05-08T13:51:16;9.38;;;7.60;;
34278;SDS011;20538;51.528;9.942;2023-05-08T13:53:42;11.90;;;7.60;;
34278;SDS011;20538;51.528;9.942;2023-05-08T13:56:07;12.65;;;8.15;;
34278;SDS011;20538;51.528;9.942;2023-05-08T13:58:33;12.40;;;8.15;;
34278;SDS011;20538;51.528;9.942;2023-05-08T14:00:59;10.15;;;8.05;;
34278;SDS011;20538;51.528;9.942;2023-05-08T14:03:25;11.30;;;7.28;;
34278;SDS011;20538;51.528;9.942;2023-05-08T14:05:51;8.50;;;7.13;;
34278;SDS011;20538;51.528;9.942;2023-05-08T14:08:16;8.05;;;6.70;;
34278;SDS011;20538;51.528;9.942;2023-05-08T14:10:42;11.48;;;6.95;;
34278;SDS011;20538;51.528;9.942;2023-05-08T14:13:08;12.52;;;7.68;;
34278;SDS011;20538;51.528;9.942;2023-05-08T14:15:34;9.80;;;6.75;;
34278;SDS011;20538;51.528;9.942;2023-05-08T14:18:01;8.02;;;6.43;;
34278;SDS011;20538;51.528;9.942;2023-05-08T14:20:27;10.32;;;6.93;;
34278;SDS011;20538;51.528;9.942;2023-05-08T14:22:53;8.95;;;7.50;;
34278;SDS011;20538;51.528;9.942;2023-05-08T14:25:19;9.27;;;6.90;;
34278;SDS011;20538;51.528;9.942;2023-05-08T14:27:45;9.35;;;7.10;;
34278;SDS011;20538;51.528;9.942;2023-05-08T14:30:10;9.10;;;7.45;;
34278;SDS011;20538;51.528;9.942;2023-05-08T14:32:37;7.78;;;6.93;;
34278;SDS011;20538;51.528;9.942;2023-05-08T14:35:02;9.57;;;7.70;;
34278;SDS011;20538;51.528;9.942;2023-05-08T14:37:28;7.82;;;6.88;;
34278;SDS011;20538;51.528;9.942;2023-05-08T14:39:54;8.75;;;6.95;;
34278;SDS011;20538;51.528;9.942;2023-05-08T14:42:21;11.35;;;7.60;;
34278;SDS011;20538;51.528;9.942;2023-05-08T14:44:47;9.57;;;7.22;;
34278;SDS011;20538;51.528;9.942;2023-05-08T14:47:12;9.40;;;6.85;;
34278;SDS011;20538;51.528;9.942;2023-05-08T14:49:38;8.23;;;6.70;;
34278;SDS011;20538;51.528;9.942;2023-05-08T14:52:04;6.72;;;5.95;;
34278;SDS011;20538;51.528;9.942;2023-05-08T14:54:31;8.80;;;6.20;;
34278;SDS011;20538;51.528;9.942;2023-05-08T14:56:56;7.93;;;5.57;;
34278;SDS011;20538;51.528;9.942;2023-05-08T14:59:22;8.55;;;5.38;;
34278;SDS011;20538;51.528;9.942;2023-05-08T15:01:48;7.60;;;5.80;;
34278;SDS011;20538;51.528;9.942;2023-05-08T15:04:14;6.70;;;5.47;;
34278;SDS011;20538;51.528;9.942;2023-05-08T15:06:40;10.15;;;5.97;;
34278;SDS011;20538;51.528;9.942;2023-05-08T15:09:06;6.88;;;5.10;;
34278;SDS011;20538;51.528;9.942;2023-05-08T15:11:33;5.82;;;4.80;;
34278;SDS011;20538;51.528;9.942;2023-05-08T15:14:00;6.25;;;5.65;;
34278;SDS011;20538;51.528;9.942;2023-05-08T15:16:26;6.63;;;5.00;;
34278;SDS011;20538;51.528;9.942;2023-05-08T15:18:52;7.35;;;5.55;;
34278;SDS011;20538;51.528;9.942;2023-05-08T15:21:18;7.43;;;5.30;;
34278;SDS011;20538;51.528;9.942;2023-05-08T15:23:50;6.75;;;5.13;;
34278;SDS011;20538;51.528;9.942;2023-05-08T15:26:19;5.88;;;5.18;;
34278;SDS011;20538;51.528;9.942;2023-05-08T15:28:45;7.05;;;5.32;;
34278;SDS011;20538;51.528;9.942;2023-05-08T15:31:12;10.52;;;5.72;;